Impacts TAF Board
For situational awareness. Not to be used for flight planning purposes.
IDs:

KSDL - Scottsdale Muni, AZ, US

Issued at 1120 UTC 30 Oct 2020
Updated at 1538 UTC 30 Oct 2020
Potential Impact None Slight Moderate High
Time1453Z 30/16Z 30/17Z 30/18Z 30/19Z 30/20Z 30/21Z 30/22Z 30/23Z 31/00Z 31/01Z 31/02Z 31/03Z 31/04Z>>
Type OBS PRVL PRVL PRVL PRVL PRVL PRVL PRVL PRVL PRVL PRVL PRVL PRVL PRVL
VIS 10 >6 >6 >6 >6 >6 >6 >6 >6 >6 >6 >6 >6 >6
CIG -- -- -- -- -- -- -- -- -- -- -- -- -- --
Cover CLR FEW FEW FEW FEW FEW FEW FEW FEW FEW FEW FEW FEW FEW
FltCat VFR VFR VFR VFR VFR VFR VFR VFR VFR VFR VFR VFR VFR VFR
WX -- -- -- -- -- -- -- -- -- -- -- -- -- --
WDir VRB VRB VRB VRB VRB VRB VRB VRB VRB VRB VRB VRB VRB VRB
WSpd 0 5 5 5 5 5 5 5 5 5 5 5 5 5
WGst -- -- -- -- -- -- -- -- -- -- -- -- -- --
Raw TAF
KSDL 301120Z 3012/3112 VRB05KT P6SM FEW250

Raw METAR
KSDL 301453Z 00000KT 10SM CLR 17/01 A3007 RMK AO2 SLP164 T01720011 53013
KSDL 301353Z 27003KT 10SM CLR 15/01 A3005 RMK AO2 SLP158 T01500006
KSDL 301253Z 00000KT 10SM CLR 16/00 A3004 RMK AO2 SLP153 T01610000

METAR Board
For situational awareness. Not to be used for flight planning purposes.